Time;durP1;ratioP1;P1;durP2;ratioP2;P2;SDS_P1;SDS_P2;PMS_P1;PMS_P2;Temp;Humidity;BMP_temperature;BMP_pressure;BME280_temperature;BME280_humidity;BME280_pressure;Samples;Min_cycle;Max_cycle;Signal;HPM_P1;HPM_P2
2022/02/11 00:02:20;;;;;;;8.57;6.07;;;28.10;81.80;;;;;;5127769;28;20061;-55
2022/02/11 00:07:16;;;;;;;8.98;6.25;;;28.10;81.70;;;;;;5127559;28;20018;-56
2022/02/11 00:09:42;;;;;;;10.55;6.10;;;28.10;81.70;;;;;;5127270;28;20023;-55
2022/02/11 00:12:09;;;;;;;6.55;5.50;;;28.10;81.60;;;;;;5126849;28;20043;-62
2022/02/11 00:14:47;;;;;;;7.10;6.05;;;28.10;81.60;;;;;;5126899;28;20043;-56
2022/02/11 00:17:15;;;;;;;11.32;6.13;;;28.10;81.60;;;;;;5127378;28;20019;-60
2022/02/11 00:19:42;;;;;;;10.70;5.97;;;28.10;81.60;;;;;;5126865;28;20346;-55
2022/02/11 00:22:09;;;;;;;9.90;6.30;;;28.10;81.60;;;;;;5127401;28;20064;-57
2022/02/11 00:24:35;;;;;;;8.60;6.15;;;28.10;81.50;;;;;;5126861;28;20031;-57
2022/02/11 00:32:27;;;;;;;11.52;6.18;;;28.10;81.30;;;;;;5127044;28;20020;-59
2022/02/11 00:35:01;;;;;;;12.05;6.05;;;28.00;81.10;;;;;;5126718;28;20019;-57
2022/02/11 00:37:30;;;;;;;8.50;5.88;;;28.10;81.20;;;;;;5126968;28;20023;-57
2022/02/11 00:40:25;;;;;;;8.35;5.75;;;28.00;81.00;;;;;;5108722;28;20023;-63
2022/02/11 00:46:14;;;;;;;6.43;5.40;;;28.00;80.90;;;;;;5106033;28;20019;-55
2022/02/11 01:02:28;;;;;;;10.23;5.63;;;27.90;80.30;;;;;;5126435;28;20031;-53
2022/02/11 01:04:55;;;;;;;7.95;5.43;;;27.90;80.20;;;;;;5126029;28;20042;-50
2022/02/11 01:07:22;;;;;;;11.07;6.35;;;27.90;80.20;;;;;;5107708;28;20026;-49
2022/02/11 01:09:48;;;;;;;19.15;6.63;;;27.90;80.10;;;;;;5125513;28;20093;-55
2022/02/11 01:12:15;;;;;;;12.23;5.72;;;27.90;79.70;;;;;;5126174;28;20067;-53
2022/02/11 01:14:50;;;;;;;13.57;6.00;;;27.90;79.70;;;;;;5126033;28;20264;-47
2022/02/11 01:19:53;;;;;;;9.80;5.60;;;27.90;79.70;;;;;;5125567;28;20020;-53
2022/02/11 01:32:48;;;;;;;11.35;5.72;;;27.80;79.10;;;;;;5125488;28;20091;-55
2022/02/11 01:47:18;;;;;;;14.48;6.40;;;27.70;78.70;;;;;;5091160;28;19911;-54
2022/02/11 02:03:16;;;;;;;8.82;5.80;;;27.70;79.20;;;;;;5104470;28;20079;-50
2022/02/11 02:19:36;;;;;;;13.27;5.43;;;27.60;78.70;;;;;;5104116;28;20045;-50
2022/02/11 02:24:51;;;;;;;13.35;5.90;;;27.60;78.60;;;;;;5104107;28;20089;-46
2022/02/11 02:33:08;;;;;;;8.38;5.30;;;27.60;79.30;;;;;;5103792;28;20382;-48
2022/02/11 02:35:53;;;;;;;6.63;5.28;;;27.60;79.50;;;;;;5097702;28;20020;-50
2022/02/11 03:34:57;;;;;;;7.03;5.20;;;27.70;79.60;;;;;;5107769;28;20082;-56
2022/02/11 03:48:55;;;;;;;8.90;4.90;;;27.70;79.50;;;;;;5107664;28;20095;-57
2022/02/11 03:52:47;;;;;;;8.87;5.27;;;27.70;79.50;;;;;;5107399;28;20350;-54
2022/02/11 03:57:49;;;;;;;7.55;5.10;;;27.70;79.40;;;;;;5073386;28;20324;-55
2022/02/11 04:55:25;;;;;;;8.05;4.80;;;27.70;78.90;;;;;;5105900;28;20015;-58
2022/02/11 05:00:40;;;;;;;6.50;4.40;;;27.70;79.10;;;;;;5105716;28;20061;-59
2022/02/11 05:03:07;;;;;;;7.32;4.40;;;27.60;79.00;;;;;;5105457;28;20028;-56
2022/02/11 05:05:49;;;;;;;6.75;5.07;;;27.70;79.10;;;;;;5105567;28;20031;-58
2022/02/11 05:08:24;;;;;;;8.07;4.78;;;27.60;79.00;;;;;;5087207;28;20031;-57
2022/02/11 05:10:53;;;;;;;5.20;4.45;;;27.70;79.10;;;;;;5105753;28;20024;-55
2022/02/11 05:13:20;;;;;;;6.03;4.50;;;27.70;79.10;;;;;;5105225;28;20062;-56
2022/02/11 05:15:47;;;;;;;5.78;4.70;;;27.60;79.00;;;;;;5105536;28;20062;-57
2022/02/11 05:18:14;;;;;;;6.82;4.60;;;27.70;79.10;;;;;;5105356;28;20293;-54
2022/02/11 05:20:44;;;;;;;5.70;4.60;;;27.70;79.10;;;;;;5105347;28;20024;-54
2022/02/11 05:23:13;;;;;;;6.85;4.82;;;27.70;79.10;;;;;;5105096;28;20096;-55
2022/02/11 05:25:41;;;;;;;5.60;4.95;;;27.60;79.10;;;;;;5105195;28;20280;-54
2022/02/11 05:28:11;;;;;;;9.75;4.60;;;27.60;79.10;;;;;;5105064;28;20070;-54
2022/02/11 05:30:39;;;;;;;10.63;5.22;;;27.60;79.10;;;;;;5105631;28;20060;-53
2022/02/11 05:33:06;;;;;;;9.52;4.65;;;27.60;79.10;;;;;;5105153;28;20170;-53
2022/02/11 05:35:34;;;;;;;6.75;4.95;;;27.60;79.10;;;;;;5105243;28;20024;-55
2022/02/11 05:38:00;;;;;;;7.50;4.43;;;27.60;79.10;;;;;;5104781;28;20336;-55
2022/02/11 05:40:27;;;;;;;7.55;4.70;;;27.60;79.10;;;;;;5104909;28;20347;-56
2022/02/11 05:42:54;;;;;;;5.80;4.40;;;27.60;79.10;;;;;;5104761;28;20091;-52
2022/02/11 05:45:20;;;;;;;8.23;4.38;;;27.60;79.10;;;;;;5104677;28;20031;-58
2022/02/11 05:47:48;;;;;;;5.90;4.60;;;27.60;79.10;;;;;;5104757;28;20254;-55
2022/02/11 05:50:15;;;;;;;9.65;4.82;;;27.60;79.10;;;;;;5104816;28;20083;-57
2022/02/11 05:52:41;;;;;;;9.57;5.00;;;27.60;79.20;;;;;;5104552;28;20030;-54
2022/02/11 05:55:08;;;;;;;6.90;4.57;;;27.60;79.20;;;;;;5104625;28;20023;-53
2022/02/11 05:57:35;;;;;;;8.88;4.72;;;27.60;79.20;;;;;;5103439;28;20212;-56
2022/02/11 06:00:03;;;;;;;10.48;5.00;;;27.60;79.20;;;;;;5104379;28;20016;-54
2022/02/11 06:02:30;;;;;;;11.55;4.53;;;27.60;79.20;;;;;;5104556;28;20032;-55
2022/02/11 06:04:56;;;;;;;6.35;4.50;;;27.70;79.30;;;;;;5104486;28;20020;-54
2022/02/11 06:07:23;;;;;;;4.88;4.10;;;27.60;79.20;;;;;;5104736;28;20070;-54
2022/02/11 06:09:49;;;;;;;6.55;4.15;;;27.60;79.20;;;;;;5104331;28;20208;-56
2022/02/11 06:12:16;;;;;;;7.30;4.55;;;27.60;79.20;;;;;;5104473;28;20111;-54
2022/02/11 06:14:43;;;;;;;6.10;5.05;;;27.60;79.20;;;;;;5104304;28;20023;-54
2022/02/11 06:17:10;;;;;;;10.07;4.72;;;27.60;79.20;;;;;;5104765;28;20028;-55
2022/02/11 06:19:37;;;;;;;7.30;4.63;;;27.60;79.20;;;;;;5104469;28;20308;-54
2022/02/11 06:22:03;;;;;;;6.65;4.55;;;27.60;79.30;;;;;;5104613;28;20032;-61
2022/02/11 06:24:30;;;;;;;7.70;4.88;;;27.60;79.30;;;;;;5086236;28;20016;-55
2022/02/11 06:26:57;;;;;;;8.38;4.53;;;27.60;79.30;;;;;;5104616;28;20035;-54
2022/02/11 06:29:24;;;;;;;6.60;4.50;;;27.60;79.30;;;;;;5104456;28;20020;-56
2022/02/11 06:31:50;;;;;;;6.10;4.32;;;27.60;79.30;;;;;;5104426;28;20028;-56
2022/02/11 06:34:17;;;;;;;7.63;4.55;;;27.60;79.30;;;;;;5104017;28;20016;-55
2022/02/11 06:36:44;;;;;;;5.75;4.90;;;27.60;79.30;;;;;;5104195;28;20028;-56
2022/02/11 06:39:10;;;;;;;5.35;4.57;;;27.60;79.30;;;;;;5104370;28;20016;-57
2022/02/11 06:41:37;;;;;;;7.18;4.28;;;27.60;79.30;;;;;;5104009;28;20027;-54
2022/02/11 06:44:04;;;;;;;7.65;4.32;;;27.60;79.30;;;;;;5103870;28;20019;-55
2022/02/11 06:46:30;;;;;;;7.03;4.85;;;27.60;79.30;;;;;;5104225;28;20028;-53
2022/02/11 06:48:57;;;;;;;5.55;4.43;;;27.60;79.30;;;;;;5103883;28;20012;-58
2022/02/11 06:51:23;;;;;;;9.45;4.75;;;27.60;79.20;;;;;;5103941;28;20310;-54
2022/02/11 06:53:50;;;;;;;5.05;4.40;;;27.60;79.20;;;;;;5103865;28;20039;-54
2022/02/11 06:56:17;;;;;;;6.60;4.82;;;27.60;79.30;;;;;;5104147;28;20095;-56
2022/02/11 06:58:45;;;;;;;5.38;4.60;;;27.60;79.30;;;;;;5103954;28;20211;-55
2022/02/11 07:01:13;;;;;;;7.75;4.50;;;27.60;79.30;;;;;;5103992;28;20066;-54
2022/02/11 07:03:39;;;;;;;5.07;4.57;;;27.60;79.30;;;;;;5104139;28;20054;-58
2022/02/11 07:06:06;;;;;;;5.93;4.32;;;27.60;79.30;;;;;;5104264;28;20030;-55
2022/02/11 07:08:33;;;;;;;6.82;4.50;;;27.60;79.30;;;;;;5106630;28;20016;-54
2022/02/11 07:10:59;;;;;;;6.40;4.50;;;27.60;79.40;;;;;;5107913;28;20126;-56
2022/02/11 07:13:26;;;;;;;4.90;4.32;;;27.60;79.40;;;;;;5107685;28;20044;-56
2022/02/11 07:15:52;;;;;;;6.88;4.57;;;27.60;80.00;;;;;;5107976;28;20028;-56
2022/02/11 07:18:19;;;;;;;5.40;4.50;;;27.60;79.50;;;;;;5107457;28;20020;-55
2022/02/11 07:20:45;;;;;;;6.70;4.20;;;27.60;79.40;;;;;;5107757;28;20020;-53
2022/02/11 07:23:13;;;;;;;5.82;4.45;;;27.60;79.50;;;;;;5108157;28;20235;-56
2022/02/11 07:25:40;;;;;;;5.50;4.28;;;27.50;79.50;;;;;;5107668;28;20190;-57
2022/02/11 07:28:07;;;;;;;5.30;4.55;;;27.50;79.50;;;;;;5107798;28;20024;-56
2022/02/11 07:30:34;;;;;;;6.05;4.25;;;27.60;79.60;;;;;;5107984;28;20158;-54
2022/02/11 07:33:01;;;;;;;8.13;4.63;;;27.60;79.70;;;;;;5119411;28;20108;-55
2022/02/11 07:35:29;;;;;;;6.45;4.40;;;27.50;79.70;;;;;;5127853;28;20028;-57
2022/02/11 07:37:55;;;;;;;7.00;4.63;;;27.50;79.80;;;;;;5127611;28;20015;-56
2022/02/11 07:40:22;;;;;;;7.75;4.85;;;27.50;79.80;;;;;;5127973;28;20165;-55
2022/02/11 07:42:52;;;;;;;7.82;4.78;;;27.50;79.80;;;;;;5124868;28;20266;-61
2022/02/11 07:45:20;;;;;;;5.35;4.50;;;27.50;79.80;;;;;;5107041;28;20031;-57
2022/02/11 07:47:47;;;;;;;8.63;4.70;;;27.50;79.90;;;;;;5106944;28;20031;-55
2022/02/11 07:50:13;;;;;;;6.47;4.72;;;27.50;79.90;;;;;;5106829;28;20020;-54
2022/02/11 07:52:40;;;;;;;7.22;4.78;;;27.50;79.90;;;;;;5107049;28;20028;-55
2022/02/11 07:55:07;;;;;;;5.95;5.00;;;27.50;79.80;;;;;;5107050;28;20327;-57
2022/02/11 07:57:33;;;;;;;6.15;4.35;;;27.50;79.90;;;;;;5107426;28;20331;-56
2022/02/11 08:00:04;;;;;;;10.25;5.10;;;27.50;79.90;;;;;;5107176;28;20015;-56
2022/02/11 08:02:37;;;;;;;6.97;5.07;;;27.50;79.90;;;;;;5106882;28;20032;-58
2022/02/11 08:05:04;;;;;;;6.43;5.00;;;27.50;80.00;;;;;;5106840;28;20033;-55
2022/02/11 08:07:31;;;;;;;5.93;4.85;;;27.50;80.00;;;;;;5106911;28;20028;-55
2022/02/11 08:09:58;;;;;;;6.40;4.65;;;27.50;80.10;;;;;;5106680;28;20200;-54
2022/02/11 08:12:24;;;;;;;9.55;4.57;;;27.40;80.00;;;;;;5106402;28;20071;-55
2022/02/11 08:14:51;;;;;;;8.55;5.00;;;27.50;80.10;;;;;;5106566;28;20016;-54
2022/02/11 08:17:18;;;;;;;7.78;5.10;;;27.50;80.10;;;;;;5107121;28;20292;-55
2022/02/11 08:19:45;;;;;;;8.23;4.80;;;27.50;80.10;;;;;;5105650;28;20016;-55
2022/02/11 08:22:11;;;;;;;7.88;5.10;;;27.40;80.00;;;;;;5106978;28;20046;-56
2022/02/11 08:24:38;;;;;;;7.88;5.10;;;27.40;80.00;;;;;;5106378;28;20294;-56
2022/02/11 08:27:04;;;;;;;8.50;4.97;;;27.40;80.00;;;;;;5106808;28;20024;-56
2022/02/11 08:29:31;;;;;;;5.78;4.60;;;27.40;80.00;;;;;;5106164;28;20030;-57
2022/02/11 08:31:58;;;;;;;6.63;4.80;;;27.40;80.10;;;;;;5106506;28;20119;-60
2022/02/11 08:34:25;;;;;;;6.05;4.82;;;27.50;80.20;;;;;;5106706;28;20016;-56
2022/02/11 08:36:52;;;;;;;6.63;4.75;;;27.40;80.10;;;;;;5106658;28;20214;-56
2022/02/11 08:39:19;;;;;;;7.70;4.65;;;27.40;80.20;;;;;;5106454;28;20024;-56
2022/02/11 08:41:46;;;;;;;7.60;4.80;;;27.40;80.30;;;;;;5106524;28;20087;-55
2022/02/11 08:44:12;;;;;;;5.85;4.60;;;27.40;80.30;;;;;;5105918;28;20036;-57
2022/02/11 08:46:39;;;;;;;6.22;4.90;;;27.40;80.40;;;;;;5106363;28;20081;-62
2022/02/11 08:49:05;;;;;;;7.65;5.22;;;27.40;80.40;;;;;;5106070;28;20042;-56
2022/02/11 08:51:32;;;;;;;6.93;4.93;;;27.40;80.40;;;;;;5106090;28;20024;-55
2022/02/11 08:53:58;;;;;;;6.95;4.90;;;27.40;80.40;;;;;;5106297;28;20019;-56
2022/02/11 08:56:28;;;;;;;7.55;4.97;;;27.40;80.40;;;;;;5106135;28;20032;-57
2022/02/11 08:58:56;;;;;;;7.38;5.57;;;27.40;80.40;;;;;;5105796;28;20016;-56
2022/02/11 09:01:23;;;;;;;7.95;4.60;;;27.40;80.40;;;;;;5105752;28;20035;-55
2022/02/11 09:03:49;;;;;;;8.85;5.30;;;27.40;80.50;;;;;;5105815;28;20057;-61
2022/02/11 09:06:18;;;;;;;7.60;4.75;;;27.40;80.50;;;;;;5106187;28;20032;-55
2022/02/11 09:08:45;;;;;;;5.25;4.75;;;27.40;80.50;;;;;;5105423;28;20062;-56
2022/02/11 09:11:19;;;;;;;7.05;5.10;;;27.40;80.60;;;;;;5105475;28;20028;-55
2022/02/11 09:13:49;;;;;;;7.22;4.82;;;27.40;80.60;;;;;;5104986;28;20056;-56
2022/02/11 09:16:16;;;;;;;10.90;5.28;;;27.40;80.60;;;;;;5105615;28;20247;-57
2022/02/11 09:18:43;;;;;;;8.65;5.43;;;27.40;80.60;;;;;;5105639;28;20073;-56
2022/02/11 09:21:10;;;;;;;6.88;5.10;;;27.40;80.60;;;;;;5105459;28;20156;-55
2022/02/11 09:23:37;;;;;;;7.10;5.00;;;27.40;80.70;;;;;;5105533;28;20020;-56
2022/02/11 09:26:04;;;;;;;6.63;5.15;;;27.40;80.70;;;;;;5105378;28;20028;-52
2022/02/11 09:28:32;;;;;;;6.88;4.80;;;27.40;80.70;;;;;;5105451;28;20035;-57
2022/02/11 09:30:58;;;;;;;8.60;5.10;;;27.40;80.70;;;;;;5105004;28;20039;-56
2022/02/11 09:33:25;;;;;;;6.70;5.03;;;27.40;80.80;;;;;;5104802;28;20020;-54
2022/02/11 09:35:52;;;;;;;9.02;5.20;;;27.30;80.70;;;;;;5105405;28;20036;-60
2022/02/11 09:38:19;;;;;;;8.50;5.00;;;27.30;80.80;;;;;;5105334;28;20300;-56
2022/02/11 09:40:50;;;;;;;8.60;5.28;;;27.40;80.90;;;;;;5105068;28;20031;-56
2022/02/11 09:43:22;;;;;;;6.32;5.00;;;27.40;80.90;;;;;;5105204;28;20204;-56
2022/02/11 09:45:49;;;;;;;;;;;27.30;80.90;;;;;;5105468;28;20231;-56
2022/02/11 09:48:17;;;;;;;7.72;5.07;;;27.30;81.00;;;;;;5104722;28;19907;-59
2022/02/11 09:50:44;;;;;;;9.15;5.45;;;27.30;81.10;;;;;;5104920;28;20062;-57
2022/02/11 09:53:12;;;;;;;6.75;4.85;;;27.30;81.10;;;;;;5105170;28;20200;-55
2022/02/11 09:55:43;;;;;;;7.45;5.47;;;27.30;81.20;;;;;;5104963;28;20023;-55
2022/02/11 09:58:13;;;;;;;7.75;4.95;;;27.40;81.30;;;;;;5104864;28;20089;-58
2022/02/11 10:00:44;;;;;;;7.55;5.25;;;27.30;81.20;;;;;;5104587;28;20020;-55
2022/02/11 10:03:23;;;;;;;8.88;5.47;;;27.30;81.20;;;;;;5104473;28;20016;-55
2022/02/11 10:05:55;;;;;;;7.40;5.32;;;27.30;81.20;;;;;;5104530;28;20096;-57
2022/02/11 10:08:24;;;;;;;9.57;5.25;;;27.30;81.30;;;;;;5104189;28;20083;-55
2022/02/11 10:10:55;;;;;;;9.30;5.68;;;27.30;81.30;;;;;;5104388;28;20066;-59
2022/02/11 10:13:42;;;;;;;7.47;5.18;;;27.30;81.40;;;;;;5104309;28;20047;-54
2022/02/11 10:16:11;;;;;;;9.60;5.47;;;27.30;81.40;;;;;;5104778;28;20024;-55
2022/02/11 10:18:42;;;;;;;8.18;5.35;;;27.30;81.50;;;;;;5104372;28;20019;-58
2022/02/11 10:21:20;;;;;;;7.35;5.35;;;27.30;81.60;;;;;;5104673;28;20032;-55
2022/02/11 10:23:50;;;;;;;7.72;5.72;;;27.30;81.60;;;;;;5104287;28;20091;-56
2022/02/11 10:26:19;;;;;;;9.48;5.80;;;27.30;81.70;;;;;;5104436;28;20074;-56
2022/02/11 10:28:55;;;;;;;8.13;5.85;;;27.30;81.80;;;;;;5104272;28;20016;-56
2022/02/11 10:31:23;;;;;;;8.15;5.78;;;27.30;81.80;;;;;;5104036;28;20028;-58
2022/02/11 10:33:59;;;;;;;9.00;6.00;;;27.30;81.90;;;;;;5104504;28;20028;-56
2022/02/11 10:36:33;;;;;;;11.75;5.47;;;27.30;81.90;;;;;;5104345;28;20020;-58
2022/02/11 10:39:02;;;;;;;8.70;6.07;;;27.30;82.00;;;;;;5103845;28;20024;-55
2022/02/11 10:41:29;;;;;;;8.13;5.90;;;27.30;82.00;;;;;;5103895;28;20036;-57
2022/02/11 10:44:04;;;;;;;9.27;6.50;;;27.30;82.00;;;;;;5089164;28;20023;-57
2022/02/11 10:46:36;;;;;;;7.47;5.82;;;27.30;82.00;;;;;;5108668;28;20024;-57
2022/02/11 10:49:03;;;;;;;12.20;5.97;;;27.30;82.10;;;;;;5108328;28;20065;-57
2022/02/11 10:51:30;;;;;;;11.00;6.38;;;27.30;82.10;;;;;;5108242;28;20028;-59
2022/02/11 10:53:56;;;;;;;9.38;5.97;;;27.30;82.00;;;;;;5108071;28;20020;-56
2022/02/11 10:56:25;;;;;;;7.88;6.40;;;27.30;82.00;;;;;;5108119;28;20207;-57
2022/02/11 10:58:57;;;;;;;11.77;6.40;;;27.30;82.10;;;;;;5107802;28;20260;-55
2022/02/11 11:01:29;;;;;;;8.95;6.20;;;27.30;82.10;;;;;;5108246;28;20030;-56
2022/02/11 11:03:57;;;;;;;11.50;6.20;;;27.30;82.10;;;;;;5107635;28;20024;-54
2022/02/11 11:06:25;;;;;;;7.63;6.00;;;27.20;82.10;;;;;;5107746;28;20035;-53
2022/02/11 11:08:54;;;;;;;16.35;6.68;;;27.30;82.10;;;;;;5107981;28;20020;-54
2022/02/11 11:11:24;;;;;;;10.32;7.03;;;27.20;82.00;;;;;;5107768;28;20036;-57
2022/02/11 11:13:53;;;;;;;18.45;6.88;;;27.20;82.20;;;;;;5107938;28;20086;-53
2022/02/11 11:16:20;;;;;;;19.92;7.28;;;27.20;82.00;;;;;;5108629;28;20027;-55
2022/02/11 11:18:47;;;;;;;16.10;8.15;;;27.20;81.90;;;;;;5108206;28;20039;-55
2022/02/11 11:21:15;;;;;;;13.50;8.73;;;27.20;81.70;;;;;;5108015;28;20039;-55
2022/02/11 11:23:54;;;;;;;13.63;6.72;;;27.20;81.60;;;;;;5108226;28;20027;-55
2022/02/11 11:26:33;;;;;;;12.45;6.95;;;27.20;81.90;;;;;;5108615;28;20225;-56
2022/02/11 11:29:21;;;;;;;9.98;6.82;;;27.20;81.90;;;;;;5107113;28;20066;-55
2022/02/11 11:31:56;;;;;;;14.90;7.43;;;27.20;81.40;;;;;;5105926;28;20296;-57
2022/02/11 11:34:24;;;;;;;8.25;6.75;;;27.20;81.30;;;;;;5105951;28;20012;-58
2022/02/11 11:36:58;;;;;;;10.98;8.20;;;27.10;81.10;;;;;;5106005;28;20496;-56
2022/02/11 11:39:25;;;;;;;11.20;6.80;;;27.10;81.10;;;;;;5105841;28;20257;-54
2022/02/11 11:42:05;;;;;;;16.48;7.00;;;27.10;81.10;;;;;;5105288;28;20020;-55
2022/02/11 11:44:41;;;;;;;15.07;7.60;;;27.10;81.10;;;;;;5106650;28;20016;-55
2022/02/11 11:47:09;;;;;;;12.68;7.55;;;27.20;81.20;;;;;;5107736;28;20073;-56
2022/02/11 11:49:47;;;;;;;11.00;6.68;;;27.10;81.20;;;;;;5107585;28;20192;-57
2022/02/11 11:52:14;;;;;;;12.52;6.72;;;27.10;81.20;;;;;;5107630;28;20195;-55
2022/02/11 11:54:41;;;;;;;14.73;7.10;;;27.10;81.10;;;;;;5107371;28;20307;-54
2022/02/11 11:57:17;;;;;;;9.45;6.25;;;27.10;81.20;;;;;;5108012;28;20153;-53
2022/02/11 11:59:48;;;;;;;11.07;7.03;;;27.10;81.20;;;;;;5107308;28;20012;-56
2022/02/11 12:02:20;;;;;;;13.17;7.10;;;27.10;81.20;;;;;;5107795;28;20024;-58
2022/02/11 12:05:00;;;;;;;10.27;6.75;;;27.20;81.20;;;;;;5107549;28;20020;-56
2022/02/11 12:07:33;;;;;;;13.73;7.15;;;27.20;81.50;;;;;;5108025;28;20103;-57
2022/02/11 12:10:03;;;;;;;11.75;7.43;;;27.10;81.70;;;;;;5107379;28;20021;-60
2022/02/11 12:12:30;;;;;;;12.68;6.97;;;27.10;81.90;;;;;;5106950;28;20090;-56
2022/02/11 12:14:59;;;;;;;15.68;7.68;;;27.10;81.90;;;;;;5107080;28;20020;-54
2022/02/11 12:17:27;;;;;;;15.38;8.10;;;27.10;82.10;;;;;;5107521;28;20020;-55
2022/02/11 12:19:55;;;;;;;12.50;7.80;;;27.10;82.20;;;;;;5106902;28;20087;-54
2022/02/11 12:22:25;;;;;;;17.50;8.07;;;27.10;82.40;;;;;;5107712;28;20314;-56
2022/02/11 12:27:46;;;;;;;19.73;8.57;;;27.10;82.60;;;;;;5106794;28;20123;-56
2022/02/11 12:30:22;;;;;;;13.48;7.85;;;27.10;82.70;;;;;;5106663;28;20020;-60
2022/02/11 12:32:53;;;;;;;12.43;8.43;;;27.10;82.80;;;;;;5107056;28;20035;-57
2022/02/11 12:35:28;;;;;;;14.30;8.10;;;27.10;82.90;;;;;;5106607;28;20074;-55
2022/02/11 12:37:58;;;;;;;14.20;8.57;;;27.10;83.10;;;;;;5106831;28;20023;-57
2022/02/11 12:40:31;;;;;;;12.68;7.30;;;27.10;83.10;;;;;;5106653;28;20115;-66
2022/02/11 12:43:00;;;;;;;13.00;8.20;;;27.10;83.40;;;;;;5106700;28;20260;-59
2022/02/11 12:45:31;;;;;;;14.38;7.32;;;27.10;83.50;;;;;;5106416;28;20239;-55
2022/02/11 12:47:57;;;;;;;15.00;8.63;;;27.00;83.50;;;;;;5106473;28;20016;-55
2022/02/11 12:50:36;;;;;;;12.98;7.97;;;27.10;83.70;;;;;;5106639;28;20016;-53
2022/02/11 12:53:05;;;;;;;14.15;8.13;;;27.00;83.90;;;;;;5106421;28;20016;-57
2022/02/11 12:55:36;;;;;;;12.07;7.70;;;27.00;83.90;;;;;;5106083;28;20204;-54
2022/02/11 12:58:06;;;;;;;12.75;8.15;;;27.10;84.10;;;;;;5106013;28;20012;-57
2022/02/11 13:00:38;;;;;;;14.00;8.43;;;27.10;84.10;;;;;;5106006;28;20100;-55
2022/02/11 13:03:07;;;;;;;12.77;8.18;;;27.10;84.20;;;;;;5106319;28;20023;-60
2022/02/11 13:05:46;;;;;;;13.85;8.30;;;27.00;84.40;;;;;;5105836;28;20035;-55
2022/02/11 13:08:29;;;;;;;12.55;8.40;;;27.00;84.40;;;;;;5106090;28;20012;-56
2022/02/11 13:10:58;;;;;;;16.38;9.07;;;27.00;84.80;;;;;;5105919;28;20027;-53
2022/02/11 13:13:25;;;;;;;21.50;10.15;;;27.00;85.00;;;;;;5105738;28;20054;-58
2022/02/11 13:15:55;;;;;;;16.73;9.82;;;27.00;85.40;;;;;;5106514;28;20034;-55
2022/02/11 13:18:24;;;;;;;19.42;10.60;;;27.00;85.40;;;;;;5105694;28;20020;-54
2022/02/11 13:20:53;;;;;;;18.02;10.77;;;27.00;85.70;;;;;;5106008;28;20062;-55
2022/02/11 13:23:24;;;;;;;17.80;10.38;;;27.00;86.10;;;;;;5105771;28;20051;-57
2022/02/11 13:25:52;;;;;;;15.40;11.32;;;26.90;86.10;;;;;;5105570;28;20039;-53
2022/02/11 13:28:22;;;;;;;17.48;10.93;;;26.90;86.10;;;;;;5105259;28;20244;-58
2022/02/11 13:31:03;;;;;;;17.92;11.20;;;27.00;86.10;;;;;;5105150;28;20024;-55
2022/02/11 13:33:37;;;;;;;17.27;10.32;;;26.90;86.40;;;;;;5105349;28;20043;-60
2022/02/11 13:36:11;;;;;;;19.38;10.45;;;26.90;86.50;;;;;;5105657;28;20028;-56
2022/02/11 13:38:40;;;;;;;19.65;10.43;;;26.90;86.70;;;;;;5105405;28;20023;-56
2022/02/11 13:41:10;;;;;;;17.23;9.90;;;26.90;86.80;;;;;;5105624;28;20016;-56
2022/02/11 13:43:57;;;;;;;13.32;9.90;;;26.90;86.90;;;;;;5087382;28;20016;-55
2022/02/11 13:46:26;;;;;;;17.40;10.65;;;26.90;87.20;;;;;;5105257;28;20228;-55
2022/02/11 13:48:55;;;;;;;15.23;10.05;;;26.90;87.30;;;;;;5104864;28;20065;-57
2022/02/11 13:51:22;;;;;;;14.75;11.02;;;26.90;87.10;;;;;;5104825;28;20024;-60
2022/02/11 13:53:53;;;;;;;15.02;11.15;;;26.80;87.30;;;;;;5105124;28;20023;-56
2022/02/11 13:56:36;;;;;;;13.47;10.33;;;26.80;87.20;;;;;;5104875;28;20028;-57
2022/02/11 13:59:11;;;;;;;16.48;10.45;;;26.80;87.00;;;;;;5105024;28;20019;-55
2022/02/11 14:01:40;;;;;;;12.30;9.85;;;26.80;87.00;;;;;;5086693;28;20300;-56
2022/02/11 14:04:27;;;;;;;13.50;9.13;;;26.80;86.90;;;;;;5104623;28;20035;-56
2022/02/11 14:06:58;;;;;;;13.57;9.60;;;26.80;87.00;;;;;;5104918;28;20028;-56
2022/02/11 14:09:37;;;;;;;13.32;9.13;;;26.80;87.20;;;;;;5104417;28;20329;-57
2022/02/11 14:12:14;;;;;;;13.90;9.43;;;26.80;87.30;;;;;;5104434;28;20083;-57
2022/02/11 14:15:02;;;;;;;13.15;8.73;;;26.80;87.40;;;;;;5104353;28;20012;-54
2022/02/11 14:17:31;;;;;;;11.55;8.93;;;26.80;87.80;;;;;;5103782;28;20024;-57
2022/02/11 14:19:58;;;;;;;11.45;8.45;;;26.70;87.70;;;;;;5104276;28;20220;-54
2022/02/11 14:22:24;;;;;;;12.32;9.02;;;26.70;87.80;;;;;;5105186;28;20020;-57
2022/02/11 14:24:51;;;;;;;9.48;8.43;;;26.70;88.00;;;;;;5104399;28;20052;-53
2022/02/11 14:27:18;;;;;;;13.32;9.60;;;26.70;88.10;;;;;;5104430;28;20055;-57
2022/02/11 14:29:45;;;;;;;14.85;9.82;;;26.70;88.10;;;;;;5104058;28;20027;-57
2022/02/11 14:32:12;;;;;;;13.30;9.98;;;26.80;88.30;;;;;;5104501;28;20024;-57
2022/02/11 14:34:41;;;;;;;14.55;11.00;;;26.80;88.70;;;;;;5104418;28;20039;-57
2022/02/11 14:37:08;;;;;;;14.75;10.48;;;26.80;88.60;;;;;;5104797;28;20093;-55
2022/02/11 14:39:35;;;;;;;12.40;9.80;;;26.80;88.80;;;;;;5104401;28;20020;-57
2022/02/11 14:42:03;;;;;;;12.13;9.85;;;26.80;88.90;;;;;;5104360;28;20023;-56
2022/02/11 14:44:32;;;;;;;11.70;9.57;;;26.80;89.10;;;;;;5104682;28;20028;-55
2022/02/11 14:47:01;;;;;;;10.80;9.10;;;26.80;88.90;;;;;;5086253;28;20069;-53
2022/02/11 14:49:29;;;;;;;13.77;9.55;;;26.80;89.00;;;;;;5104151;28;20085;-55
2022/02/11 14:51:59;;;;;;;9.45;8.48;;;26.70;88.90;;;;;;5104250;28;20028;-53
2022/02/11 14:54:28;;;;;;;11.43;9.05;;;26.70;89.00;;;;;;5104321;28;20203;-58
2022/02/11 14:56:55;;;;;;;10.57;8.88;;;26.70;89.00;;;;;;5104559;28;20100;-56
2022/02/11 14:59:22;;;;;;;13.05;8.50;;;26.70;89.00;;;;;;5104440;28;20027;-56
2022/02/11 15:01:58;;;;;;;10.20;7.82;;;26.70;89.20;;;;;;5104607;28;20027;-59
2022/02/11 15:04:25;;;;;;;9.63;8.23;;;26.70;89.00;;;;;;5104273;28;20046;-54
2022/02/11 15:06:52;;;;;;;10.05;7.85;;;26.60;89.00;;;;;;5104731;28;20297;-60
2022/02/11 15:09:20;;;;;;;11.40;7.70;;;26.60;89.00;;;;;;5085941;28;20020;-56
2022/02/11 15:11:47;;;;;;;9.18;8.27;;;26.60;89.00;;;;;;5104079;28;20031;-57
2022/02/11 15:14:14;;;;;;;8.80;7.28;;;26.60;89.00;;;;;;5104095;28;20087;-59
2022/02/11 15:16:44;;;;;;;10.40;7.78;;;26.60;89.00;;;;;;5104209;28;20300;-54
2022/02/11 15:19:11;;;;;;;8.85;7.38;;;26.60;88.90;;;;;;5103849;28;20388;-55
2022/02/11 15:21:38;;;;;;;8.73;7.68;;;26.60;89.00;;;;;;5104063;28;20235;-59
2022/02/11 15:24:05;;;;;;;10.68;7.38;;;26.60;88.90;;;;;;5103640;28;20328;-54
2022/02/11 15:26:31;;;;;;;8.98;7.47;;;26.60;88.80;;;;;;5104270;28;20024;-53
2022/02/11 15:28:58;;;;;;;10.65;7.60;;;26.60;88.70;;;;;;5105205;28;20020;-54
2022/02/11 15:31:25;;;;;;;12.52;8.43;;;26.60;88.50;;;;;;5108052;28;20077;-56
2022/02/11 15:33:52;;;;;;;12.10;9.45;;;26.60;88.40;;;;;;5107852;28;20020;-54
2022/02/11 15:36:20;;;;;;;13.02;11.65;;;26.60;88.30;;;;;;5107960;28;20352;-54
2022/02/11 15:38:47;;;;;;;20.50;18.33;;;26.60;88.10;;;;;;5107717;28;20024;-56
2022/02/11 15:41:14;;;;;;;22.10;19.80;;;26.60;88.00;;;;;;5107374;28;20024;-54
2022/02/11 15:43:41;;;;;;;26.73;24.20;;;26.60;87.90;;;;;;5107393;28;20031;-54
2022/02/11 15:46:08;;;;;;;28.52;25.58;;;26.60;87.70;;;;;;5107427;28;20079;-53
2022/02/11 15:48:39;;;;;;;29.95;27.10;;;26.60;87.60;;;;;;5107455;28;20024;-57
2022/02/11 15:51:08;;;;;;;31.10;27.95;;;26.60;87.50;;;;;;5107226;28;20028;-54
2022/02/11 15:53:35;;;;;;;28.58;25.67;;;26.60;87.40;;;;;;5106936;28;20320;-53
2022/02/11 15:56:02;;;;;;;34.35;26.63;;;26.70;87.40;;;;;;5107707;28;20093;-56
2022/02/11 15:58:29;;;;;;;28.65;25.63;;;26.60;87.20;;;;;;5107189;28;20066;-54
2022/02/11 16:00:56;;;;;;;28.35;20.33;;;26.60;87.20;;;;;;5106987;28;20020;-59
2022/02/11 16:03:26;;;;;;;22.63;19.08;;;26.60;87.30;;;;;;5106850;28;20031;-54
2022/02/11 16:05:56;;;;;;;22.00;17.40;;;26.60;87.10;;;;;;5107347;28;20338;-56
2022/02/11 16:08:22;;;;;;;18.08;15.40;;;26.60;87.00;;;;;;5106966;28;20054;-54
2022/02/11 16:10:49;;;;;;;20.77;14.18;;;26.60;86.90;;;;;;5088550;28;20212;-58
2022/02/11 16:13:15;;;;;;;19.92;13.95;;;26.60;86.70;;;;;;5106594;28;20070;-59
2022/02/11 16:15:42;;;;;;;15.80;12.45;;;26.60;86.70;;;;;;5106809;28;20035;-53
2022/02/11 16:18:14;;;;;;;12.55;11.25;;;26.60;86.40;;;;;;5106850;28;20079;-57
2022/02/11 16:20:44;;;;;;;13.65;11.05;;;26.50;86.30;;;;;;5106618;28;20086;-54
2022/02/11 16:23:14;;;;;;;12.30;10.32;;;26.60;86.40;;;;;;5106761;28;20071;-55
2022/02/11 16:25:41;;;;;;;11.25;10.07;;;26.50;86.00;;;;;;5106342;28;20028;-56
2022/02/11 16:28:10;;;;;;;11.63;9.48;;;26.50;85.80;;;;;;5106183;28;20102;-53
2022/02/11 16:30:37;;;;;;;12.35;9.30;;;26.50;85.40;;;;;;5106540;28;20028;-58